sensor_id;sensor_type;location;lat;lon;timestamp;temperature;humidity
70928;SHT31;58587;53.034;18.576;2023-06-14T12:02:54;23.39;51.20
70928;SHT31;58587;53.034;18.576;2023-06-14T12:05:22;23.47;51.59
70928;SHT31;58587;53.034;18.576;2023-06-14T12:07:49;23.43;51.58
70928;SHT31;58587;53.034;18.576;2023-06-14T12:10:15;23.29;50.91
70928;SHT31;58587;53.034;18.576;2023-06-14T12:12:42;23.31;52.48
70928;SHT31;58587;53.034;18.576;2023-06-14T12:15:08;23.16;49.74
70928;SHT31;58587;53.034;18.576;2023-06-14T12:17:35;23.06;49.99
70928;SHT31;58587;53.034;18.576;2023-06-14T12:20:05;23.00;52.43
70928;SHT31;58587;53.034;18.576;2023-06-14T12:22:52;22.86;50.43
70928;SHT31;58587;53.034;18.576;2023-06-14T12:25:44;22.78;50.76
70928;SHT31;58587;53.034;18.576;2023-06-14T12:28:10;22.73;50.72
70928;SHT31;58587;53.034;18.576;2023-06-14T12:30:36;22.59;51.00
70928;SHT31;58587;53.034;18.576;2023-06-14T12:33:05;22.64;50.46
70928;SHT31;58587;53.034;18.576;2023-06-14T12:35:31;22.71;51.81
70928;SHT31;58587;53.034;18.576;2023-06-14T12:37:56;22.65;51.09
70928;SHT31;58587;53.034;18.576;2023-06-14T12:40:22;22.65;50.69
70928;SHT31;58587;53.034;18.576;2023-06-14T12:42:48;22.76;51.42
70928;SHT31;58587;53.034;18.576;2023-06-14T12:45:14;22.78;48.02
70928;SHT31;58587;53.034;18.576;2023-06-14T12:47:40;22.73;47.86
70928;SHT31;58587;53.034;18.576;2023-06-14T12:50:06;22.69;46.74
70928;SHT31;58587;53.034;18.576;2023-06-14T12:52:31;22.64;46.65
70928;SHT31;58587;53.034;18.576;2023-06-14T12:55:01;22.69;46.03
70928;SHT31;58587;53.034;18.576;2023-06-14T12:57:26;22.78;47.60
70928;SHT31;58587;53.034;18.576;2023-06-14T12:59:51;22.78;45.69
70928;SHT31;58587;53.034;18.576;2023-06-14T13:02:17;22.89;46.73
70928;SHT31;58587;53.034;18.576;2023-06-14T13:04:44;22.89;47.66
70928;SHT31;58587;53.034;18.576;2023-06-14T13:07:09;22.98;48.06
70928;SHT31;58587;53.034;18.576;2023-06-14T13:09:36;22.98;47.02
70928;SHT31;58587;53.034;18.576;2023-06-14T13:12:01;22.91;44.18
70928;SHT31;58587;53.034;18.576;2023-06-14T13:14:27;22.89;43.99
70928;SHT31;58587;53.034;18.576;2023-06-14T13:16:52;22.78;46.04
70928;SHT31;58587;53.034;18.576;2023-06-14T13:19:17;22.61;46.08
70928;SHT31;58587;53.034;18.576;2023-06-14T13:21:43;22.45;46.06
70928;SHT31;58587;53.034;18.576;2023-06-14T13:24:08;22.34;44.02
70928;SHT31;58587;53.034;18.576;2023-06-14T13:26:34;22.08;45.41
70928;SHT31;58587;53.034;18.576;2023-06-14T13:28:59;21.97;46.13
70928;SHT31;58587;53.034;18.576;2023-06-14T13:31:25;21.89;45.40
70928;SHT31;58587;53.034;18.576;2023-06-14T13:33:50;21.86;44.87
70928;SHT31;58587;53.034;18.576;2023-06-14T13:36:15;21.86;45.89
70928;SHT31;58587;53.034;18.576;2023-06-14T13:38:41;21.76;46.41
70928;SHT31;58587;53.034;18.576;2023-06-14T13:41:06;21.76;47.61
70928;SHT31;58587;53.034;18.576;2023-06-14T13:43:31;21.77;46.67
70928;SHT31;58587;53.034;18.576;2023-06-14T13:45:57;21.69;46.76
70928;SHT31;58587;53.034;18.576;2023-06-14T13:48:22;21.63;46.84
70928;SHT31;58587;53.034;18.576;2023-06-14T13:50:47;21.57;47.33
70928;SHT31;58587;53.034;18.576;2023-06-14T13:53:13;21.56;47.90
70928;SHT31;58587;53.034;18.576;2023-06-14T13:55:39;21.50;47.59
70928;SHT31;58587;53.034;18.576;2023-06-14T13:58:04;21.43;46.90
70928;SHT31;58587;53.034;18.576;2023-06-14T14:00:29;21.20;48.58
70928;SHT31;58587;53.034;18.576;2023-06-14T14:02:55;21.06;51.07
70928;SHT31;58587;53.034;18.576;2023-06-14T14:05:22;20.99;52.12
70928;SHT31;58587;53.034;18.576;2023-06-14T14:07:51;20.92;52.90
70928;SHT31;58587;53.034;18.576;2023-06-14T14:10:17;20.74;56.54
70928;SHT31;58587;53.034;18.576;2023-06-14T14:12:45;20.61;59.30
70928;SHT31;58587;53.034;18.576;2023-06-14T14:15:11;20.43;58.82
70928;SHT31;58587;53.034;18.576;2023-06-14T14:17:38;20.24;59.90
70928;SHT31;58587;53.034;18.576;2023-06-14T14:20:03;20.23;61.36
70928;SHT31;58587;53.034;18.576;2023-06-14T14:22:29;19.96;63.96
70928;SHT31;58587;53.034;18.576;2023-06-14T14:24:54;19.83;65.14
70928;SHT31;58587;53.034;18.576;2023-06-14T14:27:20;19.77;66.34
70928;SHT31;58587;53.034;18.576;2023-06-14T14:29:45;19.63;67.45
70928;SHT31;58587;53.034;18.576;2023-06-14T14:32:10;19.55;68.13
70928;SHT31;58587;53.034;18.576;2023-06-14T14:34:38;19.51;69.78
70928;SHT31;58587;53.034;18.576;2023-06-14T14:37:04;19.32;69.02
70928;SHT31;58587;53.034;18.576;2023-06-14T14:39:29;19.21;69.97
70928;SHT31;58587;53.034;18.576;2023-06-14T14:41:55;19.15;71.74
70928;SHT31;58587;53.034;18.576;2023-06-14T14:44:21;19.07;73.85
70928;SHT31;58587;53.034;18.576;2023-06-14T14:46:46;18.94;72.84
70928;SHT31;58587;53.034;18.576;2023-06-14T14:49:12;18.81;73.21
70928;SHT31;58587;53.034;18.576;2023-06-14T14:51:37;18.77;73.80
70928;SHT31;58587;53.034;18.576;2023-06-14T14:54:03;18.75;74.33
70928;SHT31;58587;53.034;18.576;2023-06-14T14:56:29;18.60;75.06
70928;SHT31;58587;53.034;18.576;2023-06-14T14:58:54;18.54;75.50
70928;SHT31;58587;53.034;18.576;2023-06-14T15:01:20;18.47;75.90
70928;SHT31;58587;53.034;18.576;2023-06-14T15:03:45;18.51;75.90
70928;SHT31;58587;53.034;18.576;2023-06-14T15:06:10;18.40;76.93
70928;SHT31;58587;53.034;18.576;2023-06-14T15:08:36;18.40;75.27
70928;SHT31;58587;53.034;18.576;2023-06-14T15:11:01;18.34;76.43
70928;SHT31;58587;53.034;18.576;2023-06-14T15:13:28;18.33;76.43
70928;SHT31;58587;53.034;18.576;2023-06-14T15:15:53;18.26;76.23
70928;SHT31;58587;53.034;18.576;2023-06-14T15:18:18;18.27;78.04
70928;SHT31;58587;53.034;18.576;2023-06-14T15:20:45;18.26;76.95
70928;SHT31;58587;53.034;18.576;2023-06-14T15:23:11;18.27;78.81
70928;SHT31;58587;53.034;18.576;2023-06-14T15:25:36;18.17;78.67
70928;SHT31;58587;53.034;18.576;2023-06-14T15:28:02;18.14;78.72
70928;SHT31;58587;53.034;18.576;2023-06-14T15:30:31;18.07;77.09
70928;SHT31;58587;53.034;18.576;2023-06-14T15:32:57;18.09;76.40
70928;SHT31;58587;53.034;18.576;2023-06-14T15:35:23;18.03;78.42
70928;SHT31;58587;53.034;18.576;2023-06-14T15:37:48;18.05;79.22
70928;SHT31;58587;53.034;18.576;2023-06-14T15:40:14;17.97;78.67
70928;SHT31;58587;53.034;18.576;2023-06-14T15:42:40;18.00;78.37
70928;SHT31;58587;53.034;18.576;2023-06-14T15:45:06;17.97;79.42
70928;SHT31;58587;53.034;18.576;2023-06-14T15:47:31;17.97;79.69
70928;SHT31;58587;53.034;18.576;2023-06-14T15:49:57;18.03;80.00
70928;SHT31;58587;53.034;18.576;2023-06-14T15:52:22;18.06;79.21
70928;SHT31;58587;53.034;18.576;2023-06-14T15:54:47;18.06;77.98
70928;SHT31;58587;53.034;18.576;2023-06-14T15:57:12;17.96;78.85
70928;SHT31;58587;53.034;18.576;2023-06-14T15:59:38;17.86;80.19
70928;SHT31;58587;53.034;18.576;2023-06-14T16:02:03;17.81;80.77
70928;SHT31;58587;53.034;18.576;2023-06-14T16:04:29;17.78;80.80
70928;SHT31;58587;53.034;18.576;2023-06-14T16:06:54;17.78;80.96
70928;SHT31;58587;53.034;18.576;2023-06-14T16:09:20;17.74;81.15
70928;SHT31;58587;53.034;18.576;2023-06-14T16:11:46;17.75;81.20
70928;SHT31;58587;53.034;18.576;2023-06-14T16:14:11;17.74;81.59
70928;SHT31;58587;53.034;18.576;2023-06-14T16:16:36;17.66;81.07
70928;SHT31;58587;53.034;18.576;2023-06-14T16:19:02;17.65;81.39
70928;SHT31;58587;53.034;18.576;2023-06-14T16:21:27;17.64;81.93
70928;SHT31;58587;53.034;18.576;2023-06-14T16:23:53;17.58;81.94
70928;SHT31;58587;53.034;18.576;2023-06-14T16:26:18;17.52;82.72
70928;SHT31;58587;53.034;18.576;2023-06-14T16:28:43;17.54;83.18
70928;SHT31;58587;53.034;18.576;2023-06-14T16:31:12;17.51;82.40
70928;SHT31;58587;53.034;18.576;2023-06-14T16:33:42;17.46;83.19
70928;SHT31;58587;53.034;18.576;2023-06-14T16:36:08;17.39;83.27
70928;SHT31;58587;53.034;18.576;2023-06-14T16:38:33;17.41;83.59
70928;SHT31;58587;53.034;18.576;2023-06-14T16:40:59;17.38;82.21
70928;SHT31;58587;53.034;18.576;2023-06-14T16:43:24;17.36;82.68
70928;SHT31;58587;53.034;18.576;2023-06-14T16:45:50;17.31;83.29
70928;SHT31;58587;53.034;18.576;2023-06-14T16:48:15;17.31;83.25
70928;SHT31;58587;53.034;18.576;2023-06-14T16:50:41;17.27;83.50
70928;SHT31;58587;53.034;18.576;2023-06-14T16:53:06;17.24;83.83
70928;SHT31;58587;53.034;18.576;2023-06-14T16:55:31;17.20;84.02
70928;SHT31;58587;53.034;18.576;2023-06-14T16:57:59;17.15;84.50
70928;SHT31;58587;53.034;18.576;2023-06-14T17:00:25;17.12;84.85
70928;SHT31;58587;53.034;18.576;2023-06-14T17:02:51;17.14;84.73
70928;SHT31;58587;53.034;18.576;2023-06-14T17:05:18;17.14;85.21
70928;SHT31;58587;53.034;18.576;2023-06-14T17:07:43;17.14;85.24
70928;SHT31;58587;53.034;18.576;2023-06-14T17:10:09;17.07;84.90
70928;SHT31;58587;53.034;18.576;2023-06-14T17:12:34;17.07;85.55
70928;SHT31;58587;53.034;18.576;2023-06-14T17:15:01;17.07;85.16
70928;SHT31;58587;53.034;18.576;2023-06-14T17:17:26;17.07;85.27
70928;SHT31;58587;53.034;18.576;2023-06-14T17:19:51;16.99;85.70
70928;SHT31;58587;53.034;18.576;2023-06-14T17:22:17;16.99;85.72
70928;SHT31;58587;53.034;18.576;2023-06-14T17:24:42;16.94;85.64
70928;SHT31;58587;53.034;18.576;2023-06-14T17:27:08;16.93;85.55
70928;SHT31;58587;53.034;18.576;2023-06-14T17:29:34;16.91;85.50
70928;SHT31;58587;53.034;18.576;2023-06-14T17:31:59;16.85;85.20
70928;SHT31;58587;53.034;18.576;2023-06-14T17:34:24;16.90;85.10
70928;SHT31;58587;53.034;18.576;2023-06-14T17:36:50;16.80;85.00
70928;SHT31;58587;53.034;18.576;2023-06-14T17:39:17;16.80;85.13
70928;SHT31;58587;53.034;18.576;2023-06-14T17:41:42;16.73;85.68
70928;SHT31;58587;53.034;18.576;2023-06-14T17:44:08;16.70;85.20
70928;SHT31;58587;53.034;18.576;2023-06-14T17:46:34;16.69;86.24
70928;SHT31;58587;53.034;18.576;2023-06-14T17:48:59;16.61;85.94
70928;SHT31;58587;53.034;18.576;2023-06-14T17:51:25;16.59;86.15
70928;SHT31;58587;53.034;18.576;2023-06-14T17:53:50;16.57;86.45
70928;SHT31;58587;53.034;18.576;2023-06-14T17:56:16;16.60;85.43
70928;SHT31;58587;53.034;18.576;2023-06-14T17:58:43;16.60;85.42
70928;SHT31;58587;53.034;18.576;2023-06-14T18:01:08;16.53;85.03
70928;SHT31;58587;53.034;18.576;2023-06-14T18:03:33;16.49;85.99
70928;SHT31;58587;53.034;18.576;2023-06-14T18:05:59;16.43;86.48
70928;SHT31;58587;53.034;18.576;2023-06-14T18:08:25;16.36;86.73
70928;SHT31;58587;53.034;18.576;2023-06-14T18:10:50;16.34;86.83
70928;SHT31;58587;53.034;18.576;2023-06-14T18:13:16;16.36;86.62
70928;SHT31;58587;53.034;18.576;2023-06-14T18:15:41;16.33;87.08
70928;SHT31;58587;53.034;18.576;2023-06-14T18:18:06;16.36;87.11
70928;SHT31;58587;53.034;18.576;2023-06-14T18:20:32;16.32;86.97
70928;SHT31;58587;53.034;18.576;2023-06-14T18:22:57;16.28;87.03
70928;SHT31;58587;53.034;18.576;2023-06-14T18:25:23;16.32;86.89
70928;SHT31;58587;53.034;18.576;2023-06-14T18:27:48;16.32;87.17
70928;SHT31;58587;53.034;18.576;2023-06-14T18:30:14;16.28;87.28
70928;SHT31;58587;53.034;18.576;2023-06-14T18:32:39;16.22;87.12
70928;SHT31;58587;53.034;18.576;2023-06-14T18:35:06;16.19;87.59
70928;SHT31;58587;53.034;18.576;2023-06-14T18:37:33;16.19;87.60
70928;SHT31;58587;53.034;18.576;2023-06-14T18:39:58;16.20;87.75
70928;SHT31;58587;53.034;18.576;2023-06-14T18:42:23;16.18;87.94
70928;SHT31;58587;53.034;18.576;2023-06-14T18:44:50;16.15;87.88
70928;SHT31;58587;53.034;18.576;2023-06-14T18:47:15;16.15;87.95
70928;SHT31;58587;53.034;18.576;2023-06-14T18:49:41;16.15;87.77
70928;SHT31;58587;53.034;18.576;2023-06-14T18:52:07;16.10;87.66
70928;SHT31;58587;53.034;18.576;2023-06-14T18:54:33;16.08;88.04
70928;SHT31;58587;53.034;18.576;2023-06-14T18:56:58;16.06;88.32
70928;SHT31;58587;53.034;18.576;2023-06-14T18:59:25;16.05;88.36
70928;SHT31;58587;53.034;18.576;2023-06-14T19:01:50;16.05;88.60
70928;SHT31;58587;53.034;18.576;2023-06-14T19:04:15;15.99;88.53
70928;SHT31;58587;53.034;18.576;2023-06-14T19:06:41;16.01;88.50
70928;SHT31;58587;53.034;18.576;2023-06-14T19:09:06;15.99;88.50
70928;SHT31;58587;53.034;18.576;2023-06-14T19:11:32;15.99;88.76
70928;SHT31;58587;53.034;18.576;2023-06-14T19:13:57;15.99;88.77
70928;SHT31;58587;53.034;18.576;2023-06-14T19:16:22;15.96;89.07
70928;SHT31;58587;53.034;18.576;2023-06-14T19:18:48;15.99;89.03
70928;SHT31;58587;53.034;18.576;2023-06-14T19:21:13;15.92;89.04
70928;SHT31;58587;53.034;18.576;2023-06-14T19:23:40;15.94;89.28
70928;SHT31;58587;53.034;18.576;2023-06-14T19:26:05;15.95;89.33
70928;SHT31;58587;53.034;18.576;2023-06-14T19:28:33;15.96;89.25
70928;SHT31;58587;53.034;18.576;2023-06-14T19:30:59;15.92;89.34
70928;SHT31;58587;53.034;18.576;2023-06-14T19:33:24;15.88;89.59
70928;SHT31;58587;53.034;18.576;2023-06-14T19:35:49;15.91;89.39
70928;SHT31;58587;53.034;18.576;2023-06-14T19:38:15;15.91;89.21
70928;SHT31;58587;53.034;18.576;2023-06-14T19:40:41;15.89;89.31
70928;SHT31;58587;53.034;18.576;2023-06-14T19:43:07;15.88;89.14
70928;SHT31;58587;53.034;18.576;2023-06-14T19:45:32;15.88;88.96
70928;SHT31;58587;53.034;18.576;2023-06-14T19:47:58;15.85;88.98
70928;SHT31;58587;53.034;18.576;2023-06-14T19:50:23;15.84;88.98
70928;SHT31;58587;53.034;18.576;2023-06-14T19:52:48;15.82;89.00
70928;SHT31;58587;53.034;18.576;2023-06-14T19:55:14;15.79;88.81
70928;SHT31;58587;53.034;18.576;2023-06-14T19:57:40;15.79;87.90
70928;SHT31;58587;53.034;18.576;2023-06-14T20:00:06;15.78;87.37
70928;SHT31;58587;53.034;18.576;2023-06-14T20:02:33;15.69;87.14
70928;SHT31;58587;53.034;18.576;2023-06-14T20:04:58;15.64;87.88
70928;SHT31;58587;53.034;18.576;2023-06-14T20:07:23;15.58;87.35
70928;SHT31;58587;53.034;18.576;2023-06-14T20:09:49;15.53;87.44
70928;SHT31;58587;53.034;18.576;2023-06-14T20:12:14;15.50;87.88
70928;SHT31;58587;53.034;18.576;2023-06-14T20:14:40;15.41;88.32
70928;SHT31;58587;53.034;18.576;2023-06-14T20:17:05;15.37;88.13
70928;SHT31;58587;53.034;18.576;2023-06-14T20:19:30;15.40;87.98
70928;SHT31;58587;53.034;18.576;2023-06-14T20:21:56;15.33;88.02
70928;SHT31;58587;53.034;18.576;2023-06-14T20:24:21;15.28;88.37
70928;SHT31;58587;53.034;18.576;2023-06-14T20:26:48;15.26;88.31
70928;SHT31;58587;53.034;18.576;2023-06-14T20:29:13;15.20;88.85
70928;SHT31;58587;53.034;18.576;2023-06-14T20:31:38;15.19;88.54
70928;SHT31;58587;53.034;18.576;2023-06-14T20:34:04;15.13;88.56
70928;SHT31;58587;53.034;18.576;2023-06-14T20:36:29;15.16;88.53
70928;SHT31;58587;53.034;18.576;2023-06-14T20:38:55;15.14;88.93
70928;SHT31;58587;53.034;18.576;2023-06-14T20:41:20;15.08;88.70
70928;SHT31;58587;53.034;18.576;2023-06-14T20:43:46;15.06;88.72
70928;SHT31;58587;53.034;18.576;2023-06-14T20:46:13;15.06;88.80
70928;SHT31;58587;53.034;18.576;2023-06-14T20:48:39;15.06;88.06
70928;SHT31;58587;53.034;18.576;2023-06-14T20:51:04;15.02;87.96
70928;SHT31;58587;53.034;18.576;2023-06-14T20:53:30;14.94;88.54
70928;SHT31;58587;53.034;18.576;2023-06-14T20:55:55;14.93;88.95
70928;SHT31;58587;53.034;18.576;2023-06-14T20:58:20;14.90;88.48
70928;SHT31;58587;53.034;18.576;2023-06-14T21:00:46;14.87;88.21
70928;SHT31;58587;53.034;18.576;2023-06-14T21:03:11;14.90;88.51
70928;SHT31;58587;53.034;18.576;2023-06-14T21:05:36;14.89;88.36
70928;SHT31;58587;53.034;18.576;2023-06-14T21:08:02;14.84;88.32
70928;SHT31;58587;53.034;18.576;2023-06-14T21:10:27;14.82;88.21
70928;SHT31;58587;53.034;18.576;2023-06-14T21:12:55;14.82;88.90
70928;SHT31;58587;53.034;18.576;2023-06-14T21:15:21;14.79;88.50
70928;SHT31;58587;53.034;18.576;2023-06-14T21:17:54;14.73;88.90
70928;SHT31;58587;53.034;18.576;2023-06-14T21:20:20;14.73;88.42
70928;SHT31;58587;53.034;18.576;2023-06-14T21:22:45;14.69;89.02
70928;SHT31;58587;53.034;18.576;2023-06-14T21:25:15;14.65;88.84
70928;SHT31;58587;53.034;18.576;2023-06-14T21:27:40;14.60;89.08
70928;SHT31;58587;53.034;18.576;2023-06-14T21:30:06;14.60;88.93
70928;SHT31;58587;53.034;18.576;2023-06-14T21:32:33;14.62;89.25
70928;SHT31;58587;53.034;18.576;2023-06-14T21:35:00;14.62;89.16
70928;SHT31;58587;53.034;18.576;2023-06-14T21:37:25;14.58;89.22
70928;SHT31;58587;53.034;18.576;2023-06-14T21:39:51;14.53;89.19
70928;SHT31;58587;53.034;18.576;2023-06-14T21:42:16;14.55;89.44
70928;SHT31;58587;53.034;18.576;2023-06-14T21:44:42;14.48;89.23
70928;SHT31;58587;53.034;18.576;2023-06-14T21:47:10;14.52;89.68
70928;SHT31;58587;53.034;18.576;2023-06-14T21:49:37;14.55;89.74
70928;SHT31;58587;53.034;18.576;2023-06-14T21:52:03;14.52;89.65
70928;SHT31;58587;53.034;18.576;2023-06-14T21:54:28;14.43;89.25
70928;SHT31;58587;53.034;18.576;2023-06-14T21:56:53;14.46;89.77
70928;SHT31;58587;53.034;18.576;2023-06-14T21:59:19;14.39;89.50
70928;SHT31;58587;53.034;18.576;2023-06-14T22:01:44;14.38;89.45
70928;SHT31;58587;53.034;18.576;2023-06-14T22:04:10;14.35;89.85
70928;SHT31;58587;53.034;18.576;2023-06-14T22:06:35;14.42;89.93
70928;SHT31;58587;53.034;18.576;2023-06-14T22:09:01;14.38;89.55
70928;SHT31;58587;53.034;18.576;2023-06-14T22:11:26;14.41;89.63
70928;SHT31;58587;53.034;18.576;2023-06-14T22:14:00;14.42;90.22
70928;SHT31;58587;53.034;18.576;2023-06-14T22:16:25;14.38;89.95
70928;SHT31;58587;53.034;18.576;2023-06-14T22:18:51;14.36;89.70
70928;SHT31;58587;53.034;18.576;2023-06-14T22:21:17;14.36;89.68
70928;SHT31;58587;53.034;18.576;2023-06-14T22:23:44;14.36;89.80
70928;SHT31;58587;53.034;18.576;2023-06-14T22:26:10;14.31;89.94
70928;SHT31;58587;53.034;18.576;2023-06-14T22:28:35;14.32;89.90
70928;SHT31;58587;53.034;18.576;2023-06-14T22:31:07;14.29;89.94
70928;SHT31;58587;53.034;18.576;2023-06-14T22:33:34;14.29;90.00
70928;SHT31;58587;53.034;18.576;2023-06-14T22:36:06;14.33;90.38
70928;SHT31;58587;53.034;18.576;2023-06-14T22:38:33;14.35;90.11
70928;SHT31;58587;53.034;18.576;2023-06-14T22:40:58;14.33;89.88
70928;SHT31;58587;53.034;18.576;2023-06-14T22:43:23;14.32;89.88
70928;SHT31;58587;53.034;18.576;2023-06-14T22:45:49;14.32;89.75
70928;SHT31;58587;53.034;18.576;2023-06-14T22:48:16;14.28;89.46
70928;SHT31;58587;53.034;18.576;2023-06-14T22:50:41;14.26;89.39
70928;SHT31;58587;53.034;18.576;2023-06-14T22:53:07;14.26;89.53
70928;SHT31;58587;53.034;18.576;2023-06-14T22:55:32;14.25;89.50
70928;SHT31;58587;53.034;18.576;2023-06-14T22:57:58;14.26;89.91
70928;SHT31;58587;53.034;18.576;2023-06-14T23:00:25;14.19;89.73
70928;SHT31;58587;53.034;18.576;2023-06-14T23:02:50;14.26;89.81
70928;SHT31;58587;53.034;18.576;2023-06-14T23:05:15;14.22;90.10
70928;SHT31;58587;53.034;18.576;2023-06-14T23:07:42;14.24;90.16
70928;SHT31;58587;53.034;18.576;2023-06-14T23:10:08;14.21;90.12
70928;SHT31;58587;53.034;18.576;2023-06-14T23:12:34;14.25;90.10
70928;SHT31;58587;53.034;18.576;2023-06-14T23:15:00;14.28;90.39
70928;SHT31;58587;53.034;18.576;2023-06-14T23:17:28;14.24;90.42
70928;SHT31;58587;53.034;18.576;2023-06-14T23:19:57;14.21;90.24
70928;SHT31;58587;53.034;18.576;2023-06-14T23:22:26;14.25;90.19
70928;SHT31;58587;53.034;18.576;2023-06-14T23:24:52;14.24;90.04
70928;SHT31;58587;53.034;18.576;2023-06-14T23:27:18;14.22;90.28
70928;SHT31;58587;53.034;18.576;2023-06-14T23:29:48;14.22;89.81
70928;SHT31;58587;53.034;18.576;2023-06-14T23:32:14;14.22;90.03
70928;SHT31;58587;53.034;18.576;2023-06-14T23:34:41;14.25;90.15
70928;SHT31;58587;53.034;18.576;2023-06-14T23:37:08;14.28;90.17
70928;SHT31;58587;53.034;18.576;2023-06-14T23:39:33;14.26;90.25
70928;SHT31;58587;53.034;18.576;2023-06-14T23:41:59;14.25;90.06
70928;SHT31;58587;53.034;18.576;2023-06-14T23:44:24;14.25;89.78
70928;SHT31;58587;53.034;18.576;2023-06-14T23:46:50;14.31;89.83
70928;SHT31;58587;53.034;18.576;2023-06-14T23:49:18;14.32;90.15
70928;SHT31;58587;53.034;18.576;2023-06-14T23:51:44;14.29;89.92
70928;SHT31;58587;53.034;18.576;2023-06-14T23:54:09;14.33;90.63
70928;SHT31;58587;53.034;18.576;2023-06-14T23:56:37;14.29;90.30
70928;SHT31;58587;53.034;18.576;2023-06-14T23:59:04;14.29;90.33
